Time;durP1;ratioP1;P1;durP2;ratioP2;P2;SDS_P1;SDS_P2;PMS_P1;PMS_P2;Temp;Humidity;BMP_temperature;BMP_pressure;BME280_temperature;BME280_humidity;BME280_pressure;Samples;Min_cycle;Max_cycle;Signal;HPM_P1;HPM_P2
2022/09/24 00:00:41;;;;;;;7.57;4.93;;;10.90;99.90;;;;;;5067092;23;20174;-74
2022/09/24 00:02:41;;;;;;;6.47;4.73;;;10.90;99.90;;;;;;5042195;23;20186;-75
2022/09/24 00:04:42;;;;;;;6.77;4.63;;;11.00;99.90;;;;;;5067905;23;20198;-73
2022/09/24 00:06:44;;;;;;;8.83;4.67;;;10.90;99.90;;;;;;5067858;23;20171;-73
2022/09/24 00:08:47;;;;;;;8.50;4.93;;;10.60;99.90;;;;;;5067767;23;20182;-74
2022/09/24 00:10:48;;;;;;;8.03;5.40;;;10.60;99.90;;;;;;5067209;23;20166;-74
2022/09/24 00:12:50;;;;;;;9.00;4.80;;;10.50;99.90;;;;;;5067804;23;20188;-75
2022/09/24 00:14:51;;;;;;;7.10;5.10;;;10.60;99.90;;;;;;5067854;23;20216;-74
2022/09/24 00:16:51;;;;;;;11.00;5.63;;;10.70;99.90;;;;;;5067815;23;20285;-74
2022/09/24 00:18:53;;;;;;;6.93;4.90;;;10.70;99.90;;;;;;5067922;23;20162;-73
2022/09/24 00:20:53;;;;;;;7.33;4.83;;;10.80;99.90;;;;;;5067047;23;20213;-73
2022/09/24 00:22:54;;;;;;;7.97;5.53;;;10.80;99.90;;;;;;5068012;23;20280;-73
2022/09/24 00:27:14;;;;;;;8.87;5.00;;;11.00;99.90;;;;;;5067585;23;20599;-74
2022/09/24 00:29:20;;;;;;;7.67;4.73;;;11.00;99.90;;;;;;5041910;23;20206;-74
2022/09/24 00:31:20;;;;;;;5.93;4.27;;;11.10;99.90;;;;;;5066988;23;20166;-74
2022/09/24 00:33:21;;;;;;;8.33;4.53;;;11.00;99.90;;;;;;5066752;23;20276;-75
2022/09/24 00:35:22;;;;;;;6.17;4.63;;;10.90;99.90;;;;;;5041789;23;20541;-74
2022/09/24 00:37:23;;;;;;;7.67;4.73;;;10.90;99.90;;;;;;5041130;23;20194;-73
2022/09/24 00:39:23;;;;;;;7.27;4.97;;;10.80;99.90;;;;;;5065847;23;20232;-74
2022/09/24 00:41:28;;;;;;;6.57;4.80;;;10.90;99.90;;;;;;5066656;23;20165;-74
2022/09/24 00:43:35;;;;;;;7.00;5.10;;;10.90;99.90;;;;;;5068333;23;20206;-74
2022/09/24 00:45:35;;;;;;;5.83;4.67;;;10.90;99.90;;;;;;5067598;23;20211;-74
2022/09/24 00:47:40;;;;;;;6.20;4.67;;;10.80;99.90;;;;;;5067656;23;20167;-74
2022/09/24 00:49:41;;;;;;;7.17;4.77;;;10.80;99.90;;;;;;5041670;23;20687;-74
2022/09/24 00:51:45;;;;;;;10.10;4.83;;;10.80;99.90;;;;;;5066506;23;20269;-75
2022/09/24 00:53:50;;;;;;;6.90;4.80;;;10.80;99.90;;;;;;5067652;23;20162;-74
2022/09/24 00:55:55;;;;;;;7.33;5.10;;;10.80;99.90;;;;;;5069594;23;20249;-74
2022/09/24 00:57:58;;;;;;;8.07;4.60;;;10.90;99.90;;;;;;5068899;23;20254;-74
2022/09/24 00:59:59;;;;;;;6.27;4.80;;;10.90;99.90;;;;;;5042267;23;20774;-74
2022/09/24 01:02:02;;;;;;;7.93;4.47;;;10.80;99.90;;;;;;5066693;23;20237;-75
2022/09/24 01:04:04;;;;;;;6.63;4.87;;;10.80;99.90;;;;;;5067350;23;20161;-75
2022/09/24 01:06:05;;;;;;;5.70;4.10;;;10.70;99.90;;;;;;5067266;23;20166;-74
2022/09/24 01:08:06;;;;;;;6.57;5.23;;;10.70;99.90;;;;;;5066889;23;20159;-74
2022/09/24 01:10:07;;;;;;;6.80;4.27;;;10.70;99.90;;;;;;5067386;23;20163;-74
2022/09/24 01:12:27;;;;;;;6.87;4.30;;;10.70;99.90;;;;;;5040551;23;20222;-74
2022/09/24 01:15:01;;;;;;;6.97;4.30;;;10.80;99.90;;;;;;5067653;23;20155;-74
2022/09/24 01:17:15;;;;;;;6.77;4.40;;;10.80;99.90;;;;;;5067329;23;20233;-74
2022/09/24 01:19:53;;;;;;;7.20;4.20;;;10.70;99.90;;;;;;5067287;23;20612;-74
2022/09/24 01:21:56;;;;;;;8.23;4.90;;;10.70;99.90;;;;;;5066234;23;20205;-74
2022/09/24 01:24:12;;;;;;;5.60;4.50;;;10.60;99.90;;;;;;5066815;23;20158;-75
2022/09/24 01:26:31;;;;;;;5.87;3.90;;;10.70;99.90;;;;;;5066985;23;20516;-74
2022/09/24 01:28:39;;;;;;;7.17;4.13;;;10.70;99.90;;;;;;5067184;23;20146;-74
2022/09/24 01:30:41;;;;;;;7.03;4.03;;;10.60;99.90;;;;;;5066196;23;20149;-75
2022/09/24 01:32:54;;;;;;;6.10;3.97;;;10.70;99.90;;;;;;5066680;23;20178;-75
2022/09/24 01:35:02;;;;;;;8.23;3.77;;;10.90;99.90;;;;;;5066826;23;20585;-75
2022/09/24 01:37:03;;;;;;;6.73;4.13;;;10.80;99.90;;;;;;5040614;23;20198;-75
2022/09/24 01:39:06;;;;;;;9.07;4.50;;;10.80;99.90;;;;;;5066751;23;20158;-75
2022/09/24 01:41:10;;;;;;;5.17;4.13;;;10.80;99.90;;;;;;5039972;23;20254;-74
2022/09/24 01:43:13;;;;;;;7.07;4.37;;;10.80;99.90;;;;;;5064950;23;20173;-75
2022/09/24 01:45:16;;;;;;;6.00;4.30;;;10.80;99.90;;;;;;5066776;23;20158;-74
2022/09/24 01:47:27;;;;;;;5.93;3.93;;;10.90;99.90;;;;;;5066885;23;20672;-74
2022/09/24 01:49:29;;;;;;;6.30;4.40;;;10.90;99.90;;;;;;5066697;23;20225;-74
2022/09/24 01:51:42;;;;;;;6.93;4.30;;;11.00;99.90;;;;;;5039739;23;20187;-74
2022/09/24 01:54:08;;;;;;;6.00;3.80;;;11.00;99.90;;;;;;5066738;23;20150;-74
2022/09/24 01:56:17;;;;;;;5.73;4.03;;;11.00;99.90;;;;;;5066638;23;20151;-74
2022/09/24 01:58:30;;;;;;;6.47;5.13;;;11.00;99.90;;;;;;5040791;23;20171;-73
2022/09/24 02:00:31;;;;;;;7.83;4.23;;;11.00;99.90;;;;;;5066190;23;20245;-75
2022/09/24 02:02:50;;;;;;;6.37;3.90;;;11.10;99.90;;;;;;5066707;23;20178;-75
2022/09/24 02:05:11;;;;;;;6.03;4.40;;;11.10;99.90;;;;;;5066699;23;20154;-75
2022/09/24 02:07:37;;;;;;;6.67;4.70;;;11.10;99.90;;;;;;5040577;23;20198;-75
2022/09/24 02:09:41;;;;;;;5.20;3.90;;;11.00;99.90;;;;;;5066755;23;20268;-75
2022/09/24 02:11:42;;;;;;;6.60;4.40;;;11.00;99.90;;;;;;5065802;23;20273;-74
2022/09/24 02:14:00;;;;;;;6.40;3.90;;;10.90;99.90;;;;;;5066503;23;20158;-74
2022/09/24 02:16:03;;;;;;;6.37;4.03;;;11.00;99.90;;;;;;5040557;23;20668;-75
2022/09/24 02:18:08;;;;;;;6.57;4.00;;;11.10;99.90;;;;;;5066288;23;20186;-75
2022/09/24 02:20:15;;;;;;;5.43;4.10;;;11.00;99.90;;;;;;5066189;23;20159;-73
2022/09/24 02:22:16;;;;;;;6.90;4.10;;;11.00;99.90;;;;;;5040210;23;20266;-73
2022/09/24 02:24:31;;;;;;;7.20;4.30;;;11.00;99.90;;;;;;5040184;23;20502;-75
2022/09/24 02:26:31;;;;;;;5.90;4.10;;;10.90;99.90;;;;;;5065932;23;20495;-72
2022/09/24 02:28:32;;;;;;;5.43;4.03;;;10.90;99.90;;;;;;5072287;23;20163;-73
2022/09/24 02:30:39;;;;;;;6.37;4.30;;;10.90;99.90;;;;;;5067540;23;20154;-75
2022/09/24 02:32:42;;;;;;;5.00;3.90;;;11.00;99.90;;;;;;5043535;23;20190;-75
2022/09/24 02:34:50;;;;;;;4.57;3.90;;;11.00;99.90;;;;;;5044164;23;20494;-75
2022/09/24 02:37:02;;;;;;;5.30;3.60;;;10.90;99.90;;;;;;5044167;23;20241;-75
2022/09/24 02:39:03;;;;;;;5.03;3.57;;;10.90;99.90;;;;;;5041767;23;20174;-76
2022/09/24 02:41:06;;;;;;;5.87;4.70;;;11.00;99.90;;;;;;5042518;23;20163;-75
2022/09/24 02:43:07;;;;;;;5.80;4.20;;;11.00;99.90;;;;;;5040748;23;20242;-75
2022/09/24 02:45:08;;;;;;;5.70;4.13;;;11.00;99.90;;;;;;5040979;23;20167;-75
2022/09/24 02:47:09;;;;;;;5.73;4.83;;;10.90;99.90;;;;;;5042791;23;20174;-75
2022/09/24 02:49:11;;;;;;;5.00;4.33;;;10.80;99.90;;;;;;5042430;23;20170;-75
2022/09/24 02:51:12;;;;;;;5.53;4.20;;;10.90;99.90;;;;;;5041401;23;20167;-75
2022/09/24 02:53:12;;;;;;;6.90;4.37;;;10.90;99.90;;;;;;5042136;23;20253;-75
2022/09/24 02:55:13;;;;;;;7.17;4.90;;;10.90;99.90;;;;;;5043796;23;20294;-73
2022/09/24 02:57:13;;;;;;;5.30;4.37;;;10.80;99.90;;;;;;5044387;23;20187;-74
2022/09/24 02:59:14;;;;;;;5.20;4.57;;;10.90;99.90;;;;;;5042845;23;20162;-74
2022/09/24 03:01:15;;;;;;;7.57;5.00;;;10.90;99.90;;;;;;5039785;23;20167;-74
2022/09/24 03:03:15;;;;;;;8.80;5.40;;;10.90;99.90;;;;;;5065086;23;20333;-74
2022/09/24 03:05:17;;;;;;;6.63;4.60;;;11.00;99.90;;;;;;5042482;23;20174;-74
2022/09/24 03:07:17;;;;;;;7.20;4.93;;;10.90;99.90;;;;;;5042694;23;20169;-74
2022/09/24 03:09:18;;;;;;;7.97;6.13;;;11.00;99.90;;;;;;5042494;23;20515;-74
2022/09/24 03:11:20;;;;;;;6.40;5.60;;;10.90;99.90;;;;;;5041680;23;20163;-74
2022/09/24 03:13:21;;;;;;;7.20;5.70;;;10.90;99.90;;;;;;5040585;23;20167;-74
2022/09/24 03:15:21;;;;;;;7.73;5.30;;;10.90;99.90;;;;;;5042713;23;20167;-74
2022/09/24 03:17:22;;;;;;;8.03;6.00;;;11.00;99.90;;;;;;5042443;23;20625;-74
2022/09/24 03:19:22;;;;;;;7.93;5.10;;;10.90;99.90;;;;;;5042349;23;20167;-74
2022/09/24 03:21:23;;;;;;;7.40;5.27;;;10.90;99.90;;;;;;5039745;23;20617;-75
2022/09/24 03:23:24;;;;;;;8.10;5.17;;;10.90;99.90;;;;;;5064967;23;20500;-74
2022/09/24 03:25:25;;;;;;;11.03;5.27;;;11.00;99.90;;;;;;5040264;23;20170;-74
2022/09/24 03:27:25;;;;;;;5.93;4.70;;;11.00;99.90;;;;;;5040420;23;20167;-74
2022/09/24 03:31:45;;;;;;;7.10;5.63;;;11.10;99.90;;;;;;5041458;23;20198;-75
2022/09/24 03:33:47;;;;;;;6.70;4.77;;;11.20;99.90;;;;;;5058156;23;20174;-75
2022/09/24 03:35:48;;;;;;;6.43;4.57;;;11.30;99.90;;;;;;5040558;23;20171;-75
2022/09/24 03:37:48;;;;;;;5.27;4.77;;;11.30;99.90;;;;;;5066324;23;20193;-75
2022/09/24 03:39:49;;;;;;;5.60;4.43;;;11.40;99.90;;;;;;5041533;23;20174;-75
2022/09/24 03:41:49;;;;;;;4.53;4.00;;;11.60;99.90;;;;;;5066452;23;20252;-75
2022/09/24 03:43:50;;;;;;;5.07;3.97;;;11.60;99.90;;;;;;5067598;23;20158;-75
2022/09/24 03:45:51;;;;;;;4.40;3.47;;;11.60;99.90;;;;;;5041708;23;20516;-74
2022/09/24 03:47:51;;;;;;;4.00;3.20;;;11.70;99.90;;;;;;5067649;23;20159;-74
2022/09/24 03:49:52;;;;;;;4.23;3.43;;;11.70;99.90;;;;;;5067512;23;20238;-75
2022/09/24 03:51:52;;;;;;;3.77;2.93;;;11.60;99.90;;;;;;5066846;23;20270;-74
2022/09/24 03:53:53;;;;;;;4.40;3.17;;;11.70;99.90;;;;;;5067410;23;20162;-75
2022/09/24 03:55:56;;;;;;;6.70;3.77;;;11.60;99.90;;;;;;5067395;23;20172;-75
2022/09/24 03:57:56;;;;;;;6.67;3.30;;;11.60;99.90;;;;;;5041016;23;20226;-75
2022/09/24 03:59:58;;;;;;;3.90;3.10;;;11.60;99.90;;;;;;5067081;23;20154;-75
2022/09/24 04:01:58;;;;;;;4.07;2.97;;;11.60;99.90;;;;;;5066770;23;20644;-75
2022/09/24 04:04:00;;;;;;;4.50;3.40;;;11.50;99.90;;;;;;5067319;23;20258;-74
2022/09/24 04:06:00;;;;;;;4.10;3.37;;;11.50;99.90;;;;;;5067475;23;20159;-75
2022/09/24 04:08:02;;;;;;;4.37;3.30;;;11.60;99.90;;;;;;5067518;23;20229;-74
2022/09/24 04:10:03;;;;;;;5.83;3.40;;;11.60;99.90;;;;;;5067145;23;20162;-75
2022/09/24 04:12:05;;;;;;;3.97;3.00;;;11.60;99.90;;;;;;5040930;23;20242;-74
2022/09/24 04:14:05;;;;;;;4.60;3.70;;;11.60;99.90;;;;;;5069149;23;20612;-75
2022/09/24 04:16:06;;;;;;;5.67;3.97;;;11.70;99.90;;;;;;5043138;23;20207;-74
2022/09/24 04:18:07;;;;;;;4.10;3.70;;;11.70;99.90;;;;;;5068564;23;20241;-72
2022/09/24 04:20:08;;;;;;;6.77;4.50;;;11.60;99.90;;;;;;5069039;23;20851;-73
2022/09/24 04:22:08;;;;;;;5.63;3.50;;;11.60;99.90;;;;;;5041014;23;20183;-74
2022/09/24 04:24:09;;;;;;;4.50;2.90;;;11.70;99.90;;;;;;5067484;23;20265;-74
2022/09/24 04:26:10;;;;;;;4.00;3.33;;;11.70;99.90;;;;;;5067593;23;20258;-74
2022/09/24 04:28:10;;;;;;;6.47;3.53;;;11.60;99.90;;;;;;5067817;23;20578;-74
2022/09/24 04:30:13;;;;;;;6.40;3.60;;;11.60;99.90;;;;;;5040607;23;20171;-74
2022/09/24 04:32:13;;;;;;;5.97;3.50;;;11.60;99.90;;;;;;5067132;23;20217;-74
2022/09/24 04:34:14;;;;;;;6.90;3.13;;;11.60;99.90;;;;;;5041015;23;20204;-74
2022/09/24 04:36:15;;;;;;;4.63;2.80;;;11.60;99.90;;;;;;5042291;23;20163;-74
2022/09/24 04:38:17;;;;;;;3.83;3.10;;;11.70;99.90;;;;;;5042570;23;20226;-74
2022/09/24 04:40:18;;;;;;;5.17;2.97;;;11.70;99.90;;;;;;5042303;23;20224;-74
2022/09/24 04:42:18;;;;;;;3.53;2.20;;;11.70;99.90;;;;;;5042536;23;20236;-74
2022/09/24 04:44:19;;;;;;;4.90;2.67;;;11.70;99.90;;;;;;5042767;23;20155;-74
2022/09/24 04:46:20;;;;;;;3.30;2.50;;;11.70;99.90;;;;;;5042781;23;20191;-74
2022/09/24 04:48:21;;;;;;;3.60;2.77;;;11.70;99.90;;;;;;5042457;23;20171;-73
2022/09/24 04:50:24;;;;;;;3.07;2.37;;;11.60;99.90;;;;;;5042047;23;20296;-74
2022/09/24 04:52:28;;;;;;;5.13;2.50;;;11.60;99.90;;;;;;5042599;23;20179;-73
2022/09/24 04:54:29;;;;;;;4.57;2.87;;;11.60;99.90;;;;;;5043090;23;20263;-74
2022/09/24 04:56:29;;;;;;;5.33;3.10;;;11.60;99.90;;;;;;5043012;23;20270;-73
2022/09/24 04:58:30;;;;;;;6.57;3.17;;;11.60;99.90;;;;;;5042607;23;20550;-73
2022/09/24 05:00:32;;;;;;;3.33;2.47;;;11.60;99.90;;;;;;5041841;23;20242;-73
2022/09/24 05:02:32;;;;;;;4.30;2.47;;;11.60;99.90;;;;;;5042752;23;20206;-73
2022/09/24 05:04:36;;;;;;;4.57;3.10;;;11.60;99.90;;;;;;5042308;23;20166;-73
2022/09/24 05:06:37;;;;;;;5.27;3.47;;;11.50;99.90;;;;;;5042491;23;20315;-73
2022/09/24 05:08:37;;;;;;;4.37;3.00;;;11.50;99.90;;;;;;5042315;23;20609;-73
2022/09/24 05:10:38;;;;;;;3.27;2.77;;;11.50;99.90;;;;;;5041756;23;20155;-73
2022/09/24 05:12:39;;;;;;;5.90;2.90;;;11.50;99.90;;;;;;5042372;23;20257;-73
2022/09/24 05:14:40;;;;;;;3.10;2.50;;;11.50;99.90;;;;;;5042360;23;20182;-73
2022/09/24 05:16:40;;;;;;;5.23;2.90;;;11.50;99.90;;;;;;5042413;23;20191;-73
2022/09/24 05:18:41;;;;;;;4.30;2.30;;;11.50;99.90;;;;;;5042494;23;20232;-73
2022/09/24 05:20:42;;;;;;;3.33;2.50;;;11.50;99.90;;;;;;5041683;23;20258;-73
2022/09/24 05:22:48;;;;;;;4.80;2.60;;;11.50;99.90;;;;;;5042313;23;20201;-75
2022/09/24 05:24:48;;;;;;;3.57;2.47;;;11.50;99.90;;;;;;5042858;23;20231;-73
2022/09/24 05:29:08;;;;;;;7.57;2.80;;;11.50;99.90;;;;;;5042595;23;20230;-74
2022/09/24 05:31:09;;;;;;;4.30;2.57;;;11.50;99.90;;;;;;5041653;23;20159;-73
2022/09/24 05:33:10;;;;;;;3.17;2.27;;;11.50;99.90;;;;;;5051094;23;20170;-73
2022/09/24 05:35:11;;;;;;;3.90;2.60;;;11.60;99.90;;;;;;5067224;23;20169;-74
2022/09/24 05:37:13;;;;;;;3.87;2.80;;;11.50;99.90;;;;;;5066754;23;20325;-74
2022/09/24 05:39:14;;;;;;;6.53;3.57;;;11.50;99.90;;;;;;5040802;23;20163;-74
2022/09/24 05:41:14;;;;;;;4.80;3.30;;;11.50;99.90;;;;;;5065536;23;20190;-74
2022/09/24 05:43:18;;;;;;;4.13;3.07;;;11.40;99.90;;;;;;5066943;23;20166;-74
2022/09/24 05:45:18;;;;;;;4.00;3.13;;;11.50;99.90;;;;;;5066752;23;20189;-73
2022/09/24 05:47:19;;;;;;;5.00;3.73;;;11.40;99.90;;;;;;5066533;23;20165;-73
2022/09/24 05:49:19;;;;;;;7.40;3.80;;;11.40;99.90;;;;;;5066755;23;20169;-73
2022/09/24 05:51:20;;;;;;;4.97;3.60;;;11.50;99.90;;;;;;5065885;23;20166;-73
2022/09/24 05:53:24;;;;;;;5.07;4.10;;;11.50;99.90;;;;;;5066713;23;20169;-74
2022/09/24 05:55:24;;;;;;;6.63;3.33;;;11.40;99.90;;;;;;5066477;23;20271;-73
2022/09/24 05:57:25;;;;;;;3.63;2.80;;;11.50;99.90;;;;;;5066446;23;20583;-74
2022/09/24 05:59:26;;;;;;;2.97;2.67;;;11.50;99.90;;;;;;5040599;23;20512;-73
2022/09/24 06:01:30;;;;;;;2.63;2.23;;;11.50;99.90;;;;;;5065539;23;20154;-74
2022/09/24 06:03:30;;;;;;;3.90;2.60;;;11.60;99.90;;;;;;5040377;23;20210;-74
2022/09/24 06:05:33;;;;;;;3.10;2.40;;;11.60;99.90;;;;;;5064690;23;20635;-74
2022/09/24 06:07:33;;;;;;;2.73;2.37;;;11.50;99.90;;;;;;5066417;23;20219;-74
2022/09/24 06:09:34;;;;;;;2.50;2.20;;;11.60;99.90;;;;;;5066420;23;20671;-74
2022/09/24 06:11:35;;;;;;;2.30;1.90;;;11.60;99.90;;;;;;5039893;23;20735;-74
2022/09/24 06:13:35;;;;;;;3.50;2.80;;;11.60;99.90;;;;;;5040610;23;20174;-73
2022/09/24 06:15:43;;;;;;;2.90;2.33;;;11.60;99.90;;;;;;5066448;23;20502;-73
2022/09/24 06:17:43;;;;;;;3.33;2.30;;;11.60;99.90;;;;;;5040399;23;20197;-73
2022/09/24 06:19:45;;;;;;;1.90;1.80;;;11.50;99.90;;;;;;5066451;23;20776;-73
2022/09/24 06:21:47;;;;;;;2.80;2.20;;;11.60;99.90;;;;;;5039521;23;20191;-73
2022/09/24 06:23:47;;;;;;;2.63;2.17;;;11.70;99.90;;;;;;5066870;23;20162;-72
2022/09/24 06:25:50;;;;;;;2.50;2.20;;;11.80;99.90;;;;;;5066869;23;20630;-73
2022/09/24 06:28:01;;;;;;;2.67;2.47;;;11.90;99.90;;;;;;5066410;23;20167;-73
2022/09/24 06:30:03;;;;;;;3.17;2.40;;;11.90;99.90;;;;;;5066257;23;20183;-73
2022/09/24 06:32:04;;;;;;;2.93;2.30;;;11.90;99.90;;;;;;5065790;23;20194;-74
2022/09/24 06:34:04;;;;;;;4.40;3.07;;;11.90;99.90;;;;;;5066081;23;20265;-74
2022/09/24 06:36:05;;;;;;;4.87;3.00;;;11.80;99.90;;;;;;5039919;23;20182;-73
2022/09/24 06:38:08;;;;;;;3.27;2.63;;;11.90;99.90;;;;;;5065798;23;20186;-74
2022/09/24 06:40:09;;;;;;;2.80;2.47;;;12.00;99.90;;;;;;5065959;23;20154;-74
2022/09/24 06:42:10;;;;;;;3.57;3.10;;;11.90;99.90;;;;;;5066288;23;20258;-73
2022/09/24 06:44:11;;;;;;;2.93;2.63;;;11.90;99.90;;;;;;5065822;23;20165;-73
2022/09/24 06:46:13;;;;;;;3.53;2.60;;;11.90;99.90;;;;;;5065977;23;20158;-73
2022/09/24 06:48:13;;;;;;;3.00;2.70;;;11.90;99.90;;;;;;5066485;23;20225;-73
2022/09/24 06:50:14;;;;;;;3.60;2.40;;;11.90;99.90;;;;;;5065317;23;20170;-73
2022/09/24 06:52:15;;;;;;;3.23;2.80;;;11.90;99.90;;;;;;5065676;23;20186;-74
2022/09/24 06:54:16;;;;;;;5.57;3.73;;;11.90;99.90;;;;;;5040427;23;20581;-74
2022/09/24 06:56:16;;;;;;;3.47;2.93;;;12.00;99.90;;;;;;5066216;23;20186;-75
2022/09/24 06:58:19;;;;;;;3.27;2.97;;;11.90;99.90;;;;;;5066079;23;20195;-73
2022/09/24 07:00:20;;;;;;;4.43;3.50;;;11.90;99.90;;;;;;5039167;23;20218;-74
2022/09/24 07:02:20;;;;;;;4.10;3.20;;;12.00;99.90;;;;;;5066132;23;20269;-73
2022/09/24 07:04:21;;;;;;;4.83;3.60;;;12.00;99.90;;;;;;5066106;23;20508;-73
2022/09/24 07:06:21;;;;;;;5.30;3.30;;;12.00;99.90;;;;;;5066070;23;20186;-74
2022/09/24 07:08:22;;;;;;;4.30;3.00;;;12.10;99.90;;;;;;5065935;23;20543;-74
2022/09/24 07:10:24;;;;;;;4.87;3.60;;;12.10;99.90;;;;;;5039301;23;20178;-74
2022/09/24 07:12:24;;;;;;;5.73;4.20;;;12.20;99.90;;;;;;5065726;23;20185;-74
2022/09/24 07:14:25;;;;;;;3.90;3.30;;;12.30;99.90;;;;;;5065802;23;20170;-73
2022/09/24 07:16:25;;;;;;;3.83;3.13;;;12.40;99.90;;;;;;5065607;23;20242;-74
2022/09/24 07:18:26;;;;;;;3.90;3.07;;;12.50;99.90;;;;;;5065699;23;20557;-74
2022/09/24 07:20:27;;;;;;;5.13;4.13;;;12.70;99.90;;;;;;5065058;23;20690;-74
2022/09/24 07:22:27;;;;;;;5.10;2.40;;;12.80;99.90;;;;;;5040050;23;20262;-73
2022/09/24 07:24:28;;;;;;;2.70;2.00;;;12.90;99.90;;;;;;5040033;23;20234;-74
2022/09/24 07:26:29;;;;;;;2.90;2.40;;;12.90;99.90;;;;;;5065633;23;20193;-74
2022/09/24 07:28:29;;;;;;;4.73;2.80;;;12.90;99.90;;;;;;5065830;23;20161;-74
2022/09/24 07:30:32;;;;;;;3.17;2.70;;;12.70;99.90;;;;;;5065079;23;20169;-74
2022/09/24 07:32:32;;;;;;;2.40;2.20;;;12.90;99.90;;;;;;5040105;23;20247;-73
2022/09/24 07:34:33;;;;;;;2.23;2.03;;;12.90;99.90;;;;;;5040120;23;20151;-74
2022/09/24 07:36:34;;;;;;;3.57;2.07;;;13.20;99.90;;;;;;5040276;23;20246;-74
2022/09/24 07:38:37;;;;;;;2.33;2.10;;;13.30;99.90;;;;;;5039935;23;20163;-73
2022/09/24 07:40:38;;;;;;;1.80;1.50;;;13.40;99.90;;;;;;5063497;23;20213;-73
2022/09/24 07:42:46;;;;;;;3.93;2.27;;;13.30;99.90;;;;;;5041718;23;20183;-73
2022/09/24 07:44:47;;;;;;;4.17;3.10;;;13.30;99.90;;;;;;5041943;23;20670;-73
2022/09/24 07:46:51;;;;;;;4.37;2.03;;;13.30;99.90;;;;;;5042522;23;20182;-69
2022/09/24 07:48:54;;;;;;;3.23;1.80;;;13.30;99.90;;;;;;5035405;23;20167;-73
2022/09/24 07:50:55;;;;;;;2.57;1.83;;;13.30;99.90;;;;;;5038356;23;20650;-71
2022/09/24 07:52:56;;;;;;;2.57;1.90;;;13.50;99.90;;;;;;5043038;23;20233;-71
2022/09/24 07:54:56;;;;;;;2.30;2.07;;;13.50;99.90;;;;;;5043319;23;20163;-71
2022/09/24 07:56:57;;;;;;;2.50;1.83;;;13.40;99.90;;;;;;5042980;23;20273;-71
2022/09/24 07:58:58;;;;;;;1.93;1.67;;;13.50;99.90;;;;;;5043054;23;20512;-72
2022/09/24 08:01:00;;;;;;;2.83;2.03;;;13.60;99.90;;;;;;5042091;23;20163;-71
2022/09/24 08:03:01;;;;;;;2.03;1.83;;;13.60;99.90;;;;;;5043350;23;20262;-71
2022/09/24 08:05:02;;;;;;;2.60;2.07;;;13.70;99.90;;;;;;5042668;23;20616;-72
2022/09/24 08:07:03;;;;;;;2.17;1.83;;;13.90;99.90;;;;;;5042822;23;20234;-72
2022/09/24 08:09:04;;;;;;;3.37;2.23;;;14.00;99.90;;;;;;5040042;23;20175;-71
2022/09/24 08:11:05;;;;;;;2.47;1.80;;;14.10;99.90;;;;;;5041121;23;20171;-74
2022/09/24 08:13:06;;;;;;;2.30;2.10;;;13.90;99.90;;;;;;5042279;23;20245;-73
2022/09/24 08:15:07;;;;;;;1.70;1.60;;;13.80;99.90;;;;;;5042470;23;20510;-74
2022/09/24 08:17:08;;;;;;;2.00;1.80;;;13.90;99.90;;;;;;5041077;23;20329;-73
2022/09/24 08:19:12;;;;;;;1.43;1.33;;;14.10;99.90;;;;;;5042359;23;20167;-74
2022/09/24 08:21:14;;;;;;;1.93;1.53;;;14.10;99.90;;;;;;5041836;23;20514;-72
2022/09/24 08:23:15;;;;;;;2.03;1.83;;;14.20;99.90;;;;;;5042523;23;20218;-74
2022/09/24 08:25:15;;;;;;;1.60;1.50;;;13.90;99.90;;;;;;5040804;23;20199;-74
2022/09/24 08:27:16;;;;;;;2.10;1.73;;;14.00;99.90;;;;;;5042546;23;20170;-73
2022/09/24 08:29:17;;;;;;;2.43;1.77;;;13.80;99.90;;;;;;5042442;23;20163;-74
2022/09/24 08:31:17;;;;;;;2.17;1.80;;;13.60;99.90;;;;;;5041598;23;20259;-73
2022/09/24 08:33:18;;;;;;;3.53;2.17;;;13.50;99.90;;;;;;5053351;23;20182;-75
2022/09/24 08:35:19;;;;;;;1.80;1.60;;;13.60;99.90;;;;;;5066541;23;20169;-74
2022/09/24 08:37:19;;;;;;;3.60;2.13;;;13.80;99.90;;;;;;5066609;23;20200;-74
2022/09/24 08:39:20;;;;;;;1.70;1.60;;;13.70;99.90;;;;;;5066739;23;20159;-74
2022/09/24 08:41:27;;;;;;;2.27;1.60;;;13.50;99.90;;;;;;5065601;23;20162;-73
2022/09/24 08:43:55;;;;;;;2.73;1.63;;;13.40;99.90;;;;;;5066409;23;20655;-71
2022/09/24 08:48:23;;;;;;;1.57;1.40;;;13.70;99.90;;;;;;5066467;23;20201;-72
2022/09/24 08:50:28;;;;;;;1.97;1.47;;;13.80;99.90;;;;;;5065819;23;20158;-72
2022/09/24 08:52:53;;;;;;;1.43;1.33;;;13.80;99.90;;;;;;5066112;23;20178;-73
2022/09/24 08:54:55;;;;;;;2.43;1.63;;;13.70;99.90;;;;;;5066346;23;20178;-73
2022/09/24 08:56:58;;;;;;;1.50;1.17;;;13.90;99.90;;;;;;5066198;23;20223;-73
2022/09/24 08:59:25;;;;;;;2.53;1.73;;;13.90;99.90;;;;;;5065867;23;20262;-73
2022/09/24 09:01:41;;;;;;;1.93;1.57;;;14.00;99.90;;;;;;5065470;23;20201;-72
2022/09/24 09:03:41;;;;;;;1.90;1.40;;;14.00;99.90;;;;;;5066299;23;20177;-72
2022/09/24 09:06:00;;;;;;;3.00;1.60;;;14.00;99.30;;;;;;5066207;23;20162;-71
2022/09/24 09:08:06;;;;;;;3.53;1.77;;;13.90;99.90;;;;;;5066432;23;20149;-72
2022/09/24 09:10:12;;;;;;;37.73;10.87;;;13.80;99.90;;;;;;5066071;23;20154;-72
2022/09/24 09:12:25;;;;;;;1.63;1.47;;;13.70;99.90;;;;;;5066347;23;20303;-71
2022/09/24 09:15:02;;;;;;;1.77;1.60;;;13.60;99.90;;;;;;5040055;23;20159;-71
2022/09/24 09:17:11;;;;;;;2.03;1.83;;;13.60;99.90;;;;;;5008117;23;20217;-71
2022/09/24 09:19:15;;;;;;;1.60;1.50;;;13.70;99.90;;;;;;5040365;23;20239;-72
2022/09/24 09:21:21;;;;;;;1.90;1.53;;;13.90;99.90;;;;;;5065128;23;20165;-71
2022/09/24 09:23:39;;;;;;;1.70;1.60;;;14.00;99.90;;;;;;5066485;23;20608;-71
2022/09/24 09:25:46;;;;;;;2.80;1.80;;;14.00;99.90;;;;;;5066312;23;20173;-70
2022/09/24 09:27:50;;;;;;;2.10;1.60;;;14.00;99.90;;;;;;5066027;23;20150;-74
2022/09/24 09:30:00;;;;;;;1.50;1.40;;;14.00;99.90;;;;;;5065981;23;20166;-71
2022/09/24 09:32:42;;;;;;;2.17;1.70;;;14.00;99.40;;;;;;5065423;23;20566;-71
2022/09/24 09:34:54;;;;;;;2.33;1.70;;;14.00;99.90;;;;;;5010722;23;20284;-71
2022/09/24 09:37:05;;;;;;;4.97;2.57;;;14.10;99.90;;;;;;5065881;23;20277;-71
2022/09/24 09:39:11;;;;;;;3.03;1.90;;;14.30;99.90;;;;;;5064209;23;20150;-71
2022/09/24 09:41:18;;;;;;;2.17;1.97;;;14.70;99.90;;;;;;5064870;23;20173;-70
2022/09/24 09:43:19;;;;;;;2.00;1.77;;;14.90;98.60;;;;;;5065900;23;20568;-73
2022/09/24 09:45:32;;;;;;;2.17;1.90;;;14.90;97.80;;;;;;5065797;23;20166;-75
2022/09/24 09:47:49;;;;;;;11.03;7.40;;;15.40;97.20;;;;;;5065998;23;20218;-71
2022/09/24 09:49:52;;;;;;;10.43;6.67;;;15.30;98.60;;;;;;5065852;23;20177;-73
2022/09/24 09:51:56;;;;;;;2.10;1.90;;;15.30;96.50;;;;;;5064938;23;20185;-70
2022/09/24 09:54:00;;;;;;;4.33;3.80;;;15.00;95.80;;;;;;5065609;23;20628;-69
2022/09/24 09:56:06;;;;;;;3.30;2.37;;;14.60;98.40;;;;;;5039851;23;20183;-71
2022/09/24 09:58:21;;;;;;;5.97;2.60;;;14.70;99.80;;;;;;5065582;23;20174;-70
2022/09/24 10:00:31;;;;;;;6.30;3.40;;;14.90;99.00;;;;;;5064933;23;20510;-70
2022/09/24 10:02:34;;;;;;;1.80;1.50;;;15.00;97.70;;;;;;5065641;23;20242;-70
2022/09/24 10:04:34;;;;;;;1.90;1.60;;;15.10;97.20;;;;;;5065782;23;20182;-71
2022/09/24 10:06:35;;;;;;;1.33;1.23;;;15.20;94.70;;;;;;5065775;23;20502;-70
2022/09/24 10:08:36;;;;;;;2.17;1.40;;;15.40;93.90;;;;;;5065851;23;20166;-71
2022/09/24 10:10:36;;;;;;;1.53;1.43;;;15.50;95.10;;;;;;5064859;23;20163;-71
2022/09/24 10:12:37;;;;;;;2.63;1.70;;;15.70;94.70;;;;;;5065826;23;20183;-70
2022/09/24 10:14:37;;;;;;;2.10;1.80;;;15.50;94.40;;;;;;5040058;23;20209;-70
2022/09/24 10:16:43;;;;;;;1.80;1.70;;;15.40;93.70;;;;;;5065744;23;20162;-71
2022/09/24 10:18:49;;;;;;;1.77;1.40;;;15.50;94.70;;;;;;5065744;23;20685;-70
2022/09/24 10:20:50;;;;;;;1.60;1.50;;;16.30;92.50;;;;;;5065000;23;20192;-70
2022/09/24 10:22:56;;;;;;;1.97;1.77;;;16.40;88.20;;;;;;5065885;23;20227;-70
2022/09/24 10:24:59;;;;;;;2.00;1.80;;;16.50;83.90;;;;;;5040069;23;20535;-70
2022/09/24 10:27:08;;;;;;;2.80;1.67;;;16.40;85.30;;;;;;5039965;23;20171;-70
2022/09/24 10:31:40;;;;;;;2.27;1.90;;;16.20;86.40;;;;;;5065103;23;20217;-73
2022/09/24 10:33:44;;;;;;;2.50;1.97;;;16.50;88.00;;;;;;5065405;23;20647;-72
2022/09/24 10:35:44;;;;;;;2.53;1.87;;;16.60;89.70;;;;;;5066073;23;20268;-71
2022/09/24 10:37:54;;;;;;;1.97;1.80;;;17.00;81.10;;;;;;5065654;23;20186;-72
2022/09/24 10:40:16;;;;;;;1.90;1.60;;;17.50;78.40;;;;;;5065939;23;20651;-73
2022/09/24 10:42:26;;;;;;;1.80;1.70;;;17.30;81.60;;;;;;5065596;23;20265;-72
2022/09/24 10:44:35;;;;;;;2.07;1.67;;;17.60;78.60;;;;;;5065437;23;20563;-71
2022/09/24 10:47:03;;;;;;;1.77;1.60;;;17.50;75.90;;;;;;5039509;23;20525;-72
2022/09/24 10:49:36;;;;;;;3.57;1.90;;;16.80;82.50;;;;;;5040020;23;20143;-71
2022/09/24 10:52:07;;;;;;;2.97;1.87;;;16.90;82.30;;;;;;5038649;23;20175;-72
2022/09/24 10:54:49;;;;;;;2.10;1.63;;;17.10;81.10;;;;;;5039246;23;20912;-72
2022/09/24 10:56:54;;;;;;;2.50;1.87;;;17.40;76.20;;;;;;5016044;23;20594;-72